Time;durP1;ratioP1;P1;durP2;ratioP2;P2;SDS_P1;SDS_P2;PMS_P1;PMS_P2;Temp;Humidity;BMP_temperature;BMP_pressure;BME280_temperature;BME280_humidity;BME280_pressure;Samples;Min_cycle;Max_cycle;Signal;HPM_P1;HPM_P2
2024/01/15 00:02:09;;;;;;;14.25;1.50;;;;;;;;;;4968727;28;20050;-70
2024/01/15 00:04:38;;;;;;;13.45;1.70;;;;;;;;;;4964405;28;20141;-69
2024/01/15 00:07:05;;;;;;;24.55;1.90;;;;;;;;;;4969479;28;20065;-70
2024/01/15 00:09:34;;;;;;;17.50;2.63;;;;;;;;;;4968494;28;20046;-69
2024/01/15 00:12:01;;;;;;;15.73;1.30;;;;;;;;;;4969767;28;20146;-69
2024/01/15 00:14:29;;;;;;;15.80;1.70;;;;;;;;;;4967906;28;20058;-69
2024/01/15 00:16:57;;;;;;;18.70;1.45;;;;;;;;;;4969301;28;20130;-69
2024/01/15 00:19:24;;;;;;;13.48;1.63;;;;;;;;;;4968509;28;20951;-70
2024/01/15 00:21:52;;;;;;;10.40;1.40;;;;;;;;;;4967469;28;20047;-69
2024/01/15 00:24:19;;;;;;;17.00;1.65;;;;;;;;;;4965046;28;20100;-69
2024/01/15 00:26:50;;;;;;;8.10;0.82;;;;;;;;;;4967603;28;20406;-71
2024/01/15 00:29:17;;;;;;;6.20;0.70;;;;;;;;;;4966039;28;20156;-70
2024/01/15 00:31:45;;;;;;;4.72;0.90;;;;;;;;;;4969444;28;20075;-69
2024/01/15 00:34:12;;;;;;;10.50;1.25;;;;;;;;;;4968454;28;20046;-69
2024/01/15 00:36:39;;;;;;;4.75;0.98;;;;;;;;;;4968928;28;20085;-69
2024/01/15 00:39:06;;;;;;;4.68;0.47;;;;;;;;;;4967266;28;20117;-69
2024/01/15 00:41:34;;;;;;;7.10;0.63;;;;;;;;;;4965809;28;20054;-68
2024/01/15 00:44:03;;;;;;;12.50;1.20;;;;;;;;;;4965147;28;20061;-68
2024/01/15 00:46:30;;;;;;;16.58;2.42;;;;;;;;;;4967332;28;20446;-69
2024/01/15 00:48:57;;;;;;;12.77;1.02;;;;;;;;;;4964519;28;20055;-68
2024/01/15 00:51:24;;;;;;;9.20;0.90;;;;;;;;;;4968565;28;20395;-69
2024/01/15 00:53:52;;;;;;;4.32;0.68;;;;;;;;;;4967818;28;20059;-69
2024/01/15 00:56:19;;;;;;;8.98;0.75;;;;;;;;;;4966047;28;20059;-69
2024/01/15 00:58:46;;;;;;;7.90;0.77;;;;;;;;;;4965724;28;20046;-69
2024/01/15 01:01:15;;;;;;;7.40;0.80;;;;;;;;;;4966824;28;20054;-69
2024/01/15 01:03:42;;;;;;;23.13;1.95;;;;;;;;;;4966868;28;20097;-69
2024/01/15 01:06:09;;;;;;;9.50;0.93;;;;;;;;;;4968148;28;20062;-69
2024/01/15 01:08:37;;;;;;;8.00;1.20;;;;;;;;;;4964851;28;20046;-69
2024/01/15 01:11:04;;;;;;;6.15;0.95;;;;;;;;;;4966071;28;20055;-69
2024/01/15 01:13:31;;;;;;;13.70;1.50;;;;;;;;;;4967860;28;20052;-69
2024/01/15 01:15:58;;;;;;;21.30;1.65;;;;;;;;;;4964157;28;20062;-69
2024/01/15 01:18:27;;;;;;;17.33;2.15;;;;;;;;;;4969717;28;20047;-69
2024/01/15 01:20:54;;;;;;;16.25;2.00;;;;;;;;;;4968654;28;20055;-69
2024/01/15 01:23:22;;;;;;;22.60;1.77;;;;;;;;;;4973289;28;20117;-70
2024/01/15 01:25:49;;;;;;;22.10;2.42;;;;;;;;;;4969317;28;20398;-69
2024/01/15 01:28:16;;;;;;;18.73;1.85;;;;;;;;;;4963391;28;20062;-69
2024/01/15 01:30:43;;;;;;;15.70;1.42;;;;;;;;;;4962982;28;20051;-69
2024/01/15 01:33:11;;;;;;;21.80;1.70;;;;;;;;;;4971798;28;20058;-69
2024/01/15 01:35:39;;;;;;;16.52;2.35;;;;;;;;;;4968843;28;20093;-69
2024/01/15 01:38:06;;;;;;;11.25;1.02;;;;;;;;;;4971492;28;20092;-69
2024/01/15 01:40:34;;;;;;;16.15;1.50;;;;;;;;;;4970711;28;20043;-69
2024/01/15 01:43:01;;;;;;;11.98;1.38;;;;;;;;;;4962520;28;20418;-68
2024/01/15 01:45:28;;;;;;;16.00;1.88;;;;;;;;;;4967127;28;20051;-68
2024/01/15 01:47:56;;;;;;;13.35;1.00;;;;;;;;;;4971978;28;20058;-68
2024/01/15 01:50:23;;;;;;;11.30;1.35;;;;;;;;;;4969166;28;20073;-69
2024/01/15 01:52:52;;;;;;;12.10;1.52;;;;;;;;;;4968899;28;20070;-70
2024/01/15 01:55:20;;;;;;;16.15;1.35;;;;;;;;;;4971504;28;20050;-71
2024/01/15 01:57:47;;;;;;;14.85;1.40;;;;;;;;;;4969254;28;20054;-70
2024/01/15 02:00:15;;;;;;;14.00;1.65;;;;;;;;;;4970514;28;20039;-70
2024/01/15 02:02:42;;;;;;;14.02;1.52;;;;;;;;;;4970437;28;20085;-70
2024/01/15 02:05:10;;;;;;;12.68;1.33;;;;;;;;;;4971939;28;20433;-70
2024/01/15 02:07:37;;;;;;;8.07;1.00;;;;;;;;;;4968361;28;20054;-71
2024/01/15 02:10:06;;;;;;;9.05;1.27;;;;;;;;;;4968645;28;20577;-70
2024/01/15 02:12:34;;;;;;;10.07;1.13;;;;;;;;;;4967729;28;20059;-70
2024/01/15 02:15:01;;;;;;;12.68;1.67;;;;;;;;;;4963098;28;20054;-70
2024/01/15 02:17:28;;;;;;;13.43;1.52;;;;;;;;;;4969688;28;20046;-70
2024/01/15 02:19:55;;;;;;;13.25;1.50;;;;;;;;;;4969973;28;20514;-70
2024/01/15 02:22:23;;;;;;;17.20;2.08;;;;;;;;;;4965087;28;20054;-70
2024/01/15 02:24:55;;;;;;;18.77;1.35;;;;;;;;;;4969171;28;20162;-70
2024/01/15 02:27:22;;;;;;;17.00;1.52;;;;;;;;;;4968449;28;20101;-70
2024/01/15 02:29:49;;;;;;;21.83;2.25;;;;;;;;;;4967856;28;20526;-70
2024/01/15 02:32:17;;;;;;;16.85;1.73;;;;;;;;;;4970913;28;20073;-70
2024/01/15 02:34:44;;;;;;;11.10;1.20;;;;;;;;;;4969954;28;20047;-70
2024/01/15 02:37:11;;;;;;;12.82;1.80;;;;;;;;;;4971647;28;20047;-71
2024/01/15 02:39:39;;;;;;;12.43;1.17;;;;;;;;;;4971486;28;20050;-71
2024/01/15 02:42:08;;;;;;;12.25;1.02;;;;;;;;;;4970823;28;20062;-70
2024/01/15 02:44:35;;;;;;;13.43;1.23;;;;;;;;;;4968972;28;20059;-70
2024/01/15 02:47:02;;;;;;;12.77;1.27;;;;;;;;;;4964885;28;20120;-70
2024/01/15 02:49:29;;;;;;;9.98;1.20;;;;;;;;;;4968515;28;20047;-71
2024/01/15 02:51:57;;;;;;;16.63;1.42;;;;;;;;;;4967953;28;20054;-70
2024/01/15 02:54:24;;;;;;;13.00;1.60;;;;;;;;;;4967675;28;20050;-70
2024/01/15 02:56:51;;;;;;;14.63;1.60;;;;;;;;;;4969301;28;20061;-70
2024/01/15 02:59:20;;;;;;;20.75;1.90;;;;;;;;;;4969263;28;20498;-70
2024/01/15 03:01:47;;;;;;;16.23;1.30;;;;;;;;;;4969508;28;20435;-70
2024/01/15 03:04:14;;;;;;;16.15;1.80;;;;;;;;;;4967217;28;20069;-70
2024/01/15 03:06:45;;;;;;;27.73;2.00;;;;;;;;;;4967820;28;20058;-71
2024/01/15 03:09:12;;;;;;;15.52;2.05;;;;;;;;;;4970698;28;20055;-70
2024/01/15 03:11:39;;;;;;;20.63;1.85;;;;;;;;;;4970546;28;20791;-70
2024/01/15 03:14:07;;;;;;;15.25;2.38;;;;;;;;;;4968395;28;20059;-70
2024/01/15 03:16:35;;;;;;;14.70;1.55;;;;;;;;;;4967744;28;20050;-70
2024/01/15 03:19:03;;;;;;;15.18;2.08;;;;;;;;;;4969260;28;20074;-70
2024/01/15 03:21:30;;;;;;;15.23;1.52;;;;;;;;;;4966974;28;20046;-71
2024/01/15 03:23:57;;;;;;;13.80;1.60;;;;;;;;;;4964297;28;20495;-70
2024/01/15 03:26:24;;;;;;;16.88;1.90;;;;;;;;;;4962786;28;20054;-70
2024/01/15 03:28:51;;;;;;;19.00;2.10;;;;;;;;;;4968855;28;20761;-70
2024/01/15 03:31:19;;;;;;;13.93;1.67;;;;;;;;;;4966147;28;20051;-70
2024/01/15 03:33:48;;;;;;;13.75;1.33;;;;;;;;;;4965008;28;20053;-71
2024/01/15 03:36:15;;;;;;;12.75;1.25;;;;;;;;;;4967458;28;20059;-70
2024/01/15 03:38:43;;;;;;;13.50;1.58;;;;;;;;;;4966356;28;20059;-70
2024/01/15 03:41:10;;;;;;;8.60;1.13;;;;;;;;;;4967953;28;20054;-70
2024/01/15 03:43:37;;;;;;;8.07;0.88;;;;;;;;;;4970057;28;20545;-70
2024/01/15 03:46:05;;;;;;;9.35;0.70;;;;;;;;;;4966167;28;20528;-70
2024/01/15 03:48:32;;;;;;;4.43;0.47;;;;;;;;;;4966537;28;20101;-70
2024/01/15 03:51:01;;;;;;;9.63;0.95;;;;;;;;;;4969140;28;20053;-70
2024/01/15 03:53:28;;;;;;;5.13;0.50;;;;;;;;;;4967764;28;20066;-70
2024/01/15 03:55:55;;;;;;;11.00;1.30;;;;;;;;;;4969136;28;20085;-70
2024/01/15 03:58:23;;;;;;;14.82;1.20;;;;;;;;;;4970057;28;20050;-70
2024/01/15 04:00:50;;;;;;;18.02;1.52;;;;;;;;;;4962571;28;20050;-70
2024/01/15 04:03:18;;;;;;;11.98;0.65;;;;;;;;;;4968638;28;20066;-70
2024/01/15 04:05:45;;;;;;;6.82;0.80;;;;;;;;;;4968152;28;20055;-70
2024/01/15 04:08:14;;;;;;;6.57;0.90;;;;;;;;;;4970361;28;20168;-70
2024/01/15 04:10:41;;;;;;;12.10;0.90;;;;;;;;;;4968399;28;20058;-70
2024/01/15 04:13:08;;;;;;;12.82;1.27;;;;;;;;;;4968669;28;20082;-70
2024/01/15 04:15:36;;;;;;;4.47;0.75;;;;;;;;;;4967004;28;20170;-70
2024/01/15 04:18:03;;;;;;;5.90;0.90;;;;;;;;;;4961186;28;20086;-70
2024/01/15 04:20:31;;;;;;;7.57;0.65;;;;;;;;;;4967922;28;20062;-70
2024/01/15 04:22:58;;;;;;;6.38;0.75;;;;;;;;;;4964551;28;20050;-70
2024/01/15 04:25:27;;;;;;;10.43;0.82;;;;;;;;;;4967998;28;20046;-70
2024/01/15 04:27:54;;;;;;;27.73;3.80;;;;;;;;;;4963997;28;20050;-70
2024/01/15 04:30:22;;;;;;;17.25;2.10;;;;;;;;;;4965348;28;20078;-70
2024/01/15 04:32:49;;;;;;;13.93;1.27;;;;;;;;;;4963624;28;20051;-70
2024/01/15 04:35:16;;;;;;;9.93;1.50;;;;;;;;;;4967255;28;20055;-71
2024/01/15 04:37:44;;;;;;;17.80;1.60;;;;;;;;;;4967919;28;20046;-71
2024/01/15 04:40:11;;;;;;;13.60;1.88;;;;;;;;;;4967776;28;20078;-71
2024/01/15 04:42:40;;;;;;;13.82;1.63;;;;;;;;;;4965822;28;20047;-71
2024/01/15 04:45:07;;;;;;;14.90;1.70;;;;;;;;;;4965003;28;20058;-70
2024/01/15 04:47:36;;;;;;;12.63;1.70;;;;;;;;;;4967990;28;20043;-70
2024/01/15 04:50:04;;;;;;;13.40;1.63;;;;;;;;;;4967203;28;20130;-70
2024/01/15 04:52:31;;;;;;;16.85;1.58;;;;;;;;;;4963704;28;20062;-70
2024/01/15 04:54:58;;;;;;;17.05;1.45;;;;;;;;;;4949875;28;20058;-70
2024/01/15 04:57:25;;;;;;;13.95;1.58;;;;;;;;;;4947031;28;20048;-69
2024/01/15 04:59:54;;;;;;;15.18;1.50;;;;;;;;;;4932483;29;20043;-70
2024/01/15 05:02:21;;;;;;;19.35;1.50;;;;;;;;;;4949039;28;20047;-70
2024/01/15 05:04:49;;;;;;;20.95;2.45;;;;;;;;;;4950359;28;20159;-70
2024/01/15 05:07:16;;;;;;;18.40;1.65;;;;;;;;;;4929788;28;20053;-70
2024/01/15 05:09:43;;;;;;;16.98;2.25;;;;;;;;;;4948786;28;20051;-70
2024/01/15 05:12:11;;;;;;;20.30;2.15;;;;;;;;;;4949471;28;20047;-70
2024/01/15 05:14:38;;;;;;;20.77;2.33;;;;;;;;;;4928448;29;20083;-70
2024/01/15 05:17:07;;;;;;;18.60;2.05;;;;;;;;;;4947529;28;20062;-70
2024/01/15 05:19:34;;;;;;;19.17;2.60;;;;;;;;;;4931194;29;20055;-69
2024/01/15 05:22:01;;;;;;;21.25;2.22;;;;;;;;;;4935374;28;20051;-70
2024/01/15 05:24:28;;;;;;;25.02;2.22;;;;;;;;;;4952449;28;20106;-69
2024/01/15 05:26:56;;;;;;;19.67;2.13;;;;;;;;;;4931364;29;20071;-69
2024/01/15 05:29:23;;;;;;;22.50;1.77;;;;;;;;;;4948150;28;20089;-70
2024/01/15 05:31:53;;;;;;;18.88;1.80;;;;;;;;;;4950647;28;20059;-70
2024/01/15 05:34:21;;;;;;;13.38;1.67;;;;;;;;;;4949620;28;20051;-70
2024/01/15 05:36:49;;;;;;;25.83;1.95;;;;;;;;;;4949583;28;20047;-70
2024/01/15 05:39:16;;;;;;;12.80;1.42;;;;;;;;;;4947820;28;20059;-70
2024/01/15 05:41:43;;;;;;;15.98;2.17;;;;;;;;;;4930356;29;20047;-70
2024/01/15 05:44:10;;;;;;;22.70;2.10;;;;;;;;;;4946258;28;20055;-69
2024/01/15 05:46:38;;;;;;;23.95;2.13;;;;;;;;;;4949174;28;20051;-69
2024/01/15 05:49:05;;;;;;;15.40;2.47;;;;;;;;;;4948244;28;20403;-69
2024/01/15 05:51:34;;;;;;;11.20;1.17;;;;;;;;;;4949436;28;20054;-70
2024/01/15 05:54:01;;;;;;;17.70;1.92;;;;;;;;;;4961195;28;20066;-70
2024/01/15 05:56:28;;;;;;;14.07;1.90;;;;;;;;;;4966356;28;20137;-70
2024/01/15 05:58:55;;;;;;;15.32;1.15;;;;;;;;;;4964698;28;20063;-70
2024/01/15 06:01:22;;;;;;;17.88;1.77;;;;;;;;;;4967064;28;20334;-70
2024/01/15 06:03:50;;;;;;;16.02;1.90;;;;;;;;;;4960660;28;20418;-70
2024/01/15 06:06:17;;;;;;;9.38;1.13;;;;;;;;;;4966588;28;20487;-70
2024/01/15 06:08:46;;;;;;;7.97;1.40;;;;;;;;;;4969458;28;20050;-70
2024/01/15 06:11:13;;;;;;;8.73;0.60;;;;;;;;;;4969349;28;20406;-69
2024/01/15 06:13:40;;;;;;;9.57;1.90;;;;;;;;;;4969516;28;20046;-69
2024/01/15 06:16:13;;;;;;;6.03;1.02;;;;;;;;;;4970066;28;20047;-69
2024/01/15 06:18:41;;;;;;;5.10;0.40;;;;;;;;;;4968043;28;20528;-69
2024/01/15 06:21:10;;;;;;;6.30;0.40;;;;;;;;;;4970946;28;20057;-70
2024/01/15 06:23:37;;;;;;;4.20;0.68;;;;;;;;;;4969385;28;20449;-69
2024/01/15 06:26:06;;;;;;;7.55;0.95;;;;;;;;;;4969340;28;20062;-69
2024/01/15 06:28:33;;;;;;;7.30;0.85;;;;;;;;;;4970528;28;20062;-69
2024/01/15 06:31:01;;;;;;;9.10;1.10;;;;;;;;;;4970729;28;20050;-69
2024/01/15 06:33:28;;;;;;;12.95;3.17;;;;;;;;;;4967424;28;20173;-70
2024/01/15 06:35:55;;;;;;;12.05;2.55;;;;;;;;;;4967891;28;20050;-69
2024/01/15 06:38:23;;;;;;;6.53;0.93;;;;;;;;;;4970375;28;20086;-69
2024/01/15 06:40:51;;;;;;;8.00;1.15;;;;;;;;;;4969901;28;20493;-70
2024/01/15 06:43:20;;;;;;;16.10;1.13;;;;;;;;;;4972437;28;20054;-69
2024/01/15 06:45:47;;;;;;;19.13;1.73;;;;;;;;;;4966427;28;20061;-70
2024/01/15 06:48:16;;;;;;;13.55;1.27;;;;;;;;;;4969154;28;20054;-69
2024/01/15 06:50:43;;;;;;;16.20;1.40;;;;;;;;;;4964072;28;20057;-70
2024/01/15 06:53:10;;;;;;;10.05;1.63;;;;;;;;;;4970411;28;20062;-70
2024/01/15 06:55:38;;;;;;;12.77;1.17;;;;;;;;;;4970369;28;20047;-69
2024/01/15 06:58:05;;;;;;;14.57;1.20;;;;;;;;;;4959361;28;20051;-70
2024/01/15 07:00:34;;;;;;;9.65;1.88;;;;;;;;;;4968291;28;20043;-70
2024/01/15 07:03:01;;;;;;;16.50;1.23;;;;;;;;;;4968098;28;20050;-70
2024/01/15 07:05:30;;;;;;;19.48;1.73;;;;;;;;;;4968809;28;20046;-70
2024/01/15 07:07:57;;;;;;;15.57;2.83;;;;;;;;;;4968257;28;20062;-70
2024/01/15 07:10:24;;;;;;;22.63;1.30;;;;;;;;;;4969633;28;20049;-70
2024/01/15 07:12:52;;;;;;;8.68;1.00;;;;;;;;;;4967912;28;20494;-70
2024/01/15 07:15:19;;;;;;;14.07;2.28;;;;;;;;;;4968915;28;20062;-70
2024/01/15 07:17:47;;;;;;;11.73;1.98;;;;;;;;;;4971093;28;20058;-70
2024/01/15 07:20:15;;;;;;;11.55;1.60;;;;;;;;;;4966760;28;20065;-69
2024/01/15 07:22:42;;;;;;;7.20;0.95;;;;;;;;;;4969839;28;20127;-70
2024/01/15 07:25:10;;;;;;;13.50;1.20;;;;;;;;;;4970823;28;20046;-70
2024/01/15 07:27:37;;;;;;;7.07;0.82;;;;;;;;;;4970457;28;20076;-70
2024/01/15 07:30:06;;;;;;;7.97;2.30;;;;;;;;;;4967226;28;20065;-70
2024/01/15 07:32:33;;;;;;;12.25;2.50;;;;;;;;;;4967520;28;20069;-70
2024/01/15 07:35:02;;;;;;;3.75;0.50;;;;;;;;;;4967093;28;20058;-70
2024/01/15 07:37:29;;;;;;;5.82;1.35;;;;;;;;;;4971026;28;20051;-70
2024/01/15 07:39:56;;;;;;;3.90;0.65;;;;;;;;;;4970122;28;20571;-69
2024/01/15 07:42:24;;;;;;;3.95;0.30;;;;;;;;;;4970204;28;20046;-70
2024/01/15 07:44:51;;;;;;;5.05;0.60;;;;;;;;;;4965223;28;20050;-70
2024/01/15 07:47:18;;;;;;;6.65;0.40;;;;;;;;;;4965333;28;20054;-70
2024/01/15 07:49:46;;;;;;;2.38;0.47;;;;;;;;;;4968201;28;20498;-70
2024/01/15 07:52:14;;;;;;;3.55;0.45;;;;;;;;;;4960502;28;20054;-70
2024/01/15 07:54:42;;;;;;;10.77;2.40;;;;;;;;;;4964875;28;20182;-70
2024/01/15 07:57:09;;;;;;;5.93;0.60;;;;;;;;;;4963703;28;20054;-70
2024/01/15 07:59:37;;;;;;;7.78;0.95;;;;;;;;;;4945707;28;20054;-70
2024/01/15 08:02:04;;;;;;;7.85;0.85;;;;;;;;;;4961900;28;20134;-69
2024/01/15 08:04:31;;;;;;;5.43;0.68;;;;;;;;;;4961483;28;20047;-70
2024/01/15 08:06:58;;;;;;;8.73;1.00;;;;;;;;;;4966387;28;20054;-70
2024/01/15 08:09:27;;;;;;;4.72;1.33;;;;;;;;;;4963939;28;20047;-70
2024/01/15 08:11:55;;;;;;;13.35;1.15;;;;;;;;;;4969515;28;20051;-70
2024/01/15 08:14:23;;;;;;;9.70;1.25;;;;;;;;;;4968186;28;20047;-70
2024/01/15 08:16:50;;;;;;;11.07;1.13;;;;;;;;;;4967680;28;20047;-70
2024/01/15 08:19:19;;;;;;;13.27;1.27;;;;;;;;;;4957781;28;20062;-70
2024/01/15 08:21:47;;;;;;;9.82;0.85;;;;;;;;;;4968842;28;20047;-70
2024/01/15 08:24:14;;;;;;;8.88;1.02;;;;;;;;;;4970634;28;20117;-70
2024/01/15 08:26:42;;;;;;;10.45;1.00;;;;;;;;;;4952670;28;20502;-69
2024/01/15 08:29:10;;;;;;;7.55;1.50;;;;;;;;;;4962054;28;20059;-70
2024/01/15 08:31:37;;;;;;;14.60;2.28;;;;;;;;;;4952192;28;20062;-70
2024/01/15 08:34:04;;;;;;;16.30;1.83;;;;;;;;;;4969488;28;20058;-71
2024/01/15 08:36:32;;;;;;;9.27;0.88;;;;;;;;;;4952195;28;20082;-70
2024/01/15 08:38:59;;;;;;;11.85;1.00;;;;;;;;;;4965743;28;20351;-70
2024/01/15 08:41:27;;;;;;;12.60;1.63;;;;;;;;;;4959131;28;20054;-70
2024/01/15 08:43:55;;;;;;;10.57;0.93;;;;;;;;;;4965675;28;20061;-70
2024/01/15 08:46:24;;;;;;;10.27;1.17;;;;;;;;;;4969542;28;20046;-70
2024/01/15 08:48:51;;;;;;;14.55;1.77;;;;;;;;;;4968493;28;20564;-70
2024/01/15 08:51:19;;;;;;;16.73;1.90;;;;;;;;;;4951454;28;20050;-70
2024/01/15 08:53:46;;;;;;;15.50;1.27;;;;;;;;;;4960274;28;20058;-70
2024/01/15 08:56:13;;;;;;;10.20;1.10;;;;;;;;;;4969414;28;20042;-70
2024/01/15 08:58:41;;;;;;;10.65;1.00;;;;;;;;;;4969671;28;20047;-70
2024/01/15 09:01:10;;;;;;;17.70;1.90;;;;;;;;;;4964203;28;20097;-70
2024/01/15 09:03:37;;;;;;;8.98;1.13;;;;;;;;;;4963097;28;20058;-70
2024/01/15 09:06:05;;;;;;;6.82;1.88;;;;;;;;;;4968150;28;20548;-70
2024/01/15 09:08:32;;;;;;;12.55;1.60;;;;;;;;;;4969709;28;20051;-70
2024/01/15 09:11:02;;;;;;;11.60;1.60;;;;;;;;;;4967887;28;20047;-70
2024/01/15 09:13:31;;;;;;;9.32;1.08;;;;;;;;;;4969350;28;20046;-70
2024/01/15 09:16:02;;;;;;;8.10;1.33;;;;;;;;;;4967079;28;20065;-70
2024/01/15 09:18:30;;;;;;;9.98;2.03;;;;;;;;;;4968442;28;20541;-69
2024/01/15 09:20:58;;;;;;;8.43;0.85;;;;;;;;;;4968182;28;20139;-70
2024/01/15 09:23:25;;;;;;;5.07;0.75;;;;;;;;;;4967130;28;20058;-70
2024/01/15 09:25:52;;;;;;;26.05;4.32;;;;;;;;;;4965591;28;20421;-70
2024/01/15 09:28:19;;;;;;;12.93;0.98;;;;;;;;;;4966343;28;20411;-70
2024/01/15 09:30:47;;;;;;;8.60;0.95;;;;;;;;;;4966503;28;20051;-70
2024/01/15 09:33:14;;;;;;;10.10;0.90;;;;;;;;;;4966745;28;20065;-70
2024/01/15 09:35:43;;;;;;;10.15;1.20;;;;;;;;;;4969442;28;20058;-70
2024/01/15 09:38:10;;;;;;;10.18;1.45;;;;;;;;;;4966737;28;20047;-70
2024/01/15 09:40:40;;;;;;;8.63;1.58;;;;;;;;;;4967010;28;20047;-70
2024/01/15 09:43:07;;;;;;;6.50;1.13;;;;;;;;;;4971549;28;20050;-70
2024/01/15 09:45:35;;;;;;;10.10;1.35;;;;;;;;;;4972702;28;20518;-70
2024/01/15 09:48:02;;;;;;;8.80;1.30;;;;;;;;;;4970805;28;20054;-70
2024/01/15 09:50:29;;;;;;;14.10;1.20;;;;;;;;;;4972917;28;20050;-70
2024/01/15 09:52:58;;;;;;;8.93;1.50;;;;;;;;;;4971061;28;20139;-70
2024/01/15 09:55:26;;;;;;;9.15;1.60;;;;;;;;;;4973334;28;20047;-70
2024/01/15 09:57:54;;;;;;;8.77;1.90;;;;;;;;;;4971171;28;20061;-70
2024/01/15 10:00:22;;;;;;;13.77;0.75;;;;;;;;;;4973181;28;20384;-70
2024/01/15 10:02:49;;;;;;;11.68;1.67;;;;;;;;;;4969977;28;22190;-71
2024/01/15 10:05:16;;;;;;;10.40;1.80;;;;;;;;;;4972817;28;20646;-71
2024/01/15 10:07:44;;;;;;;8.82;1.60;;;;;;;;;;4969899;28;20070;-70
2024/01/15 10:10:13;;;;;;;15.15;2.42;;;;;;;;;;4972321;28;20061;-70
2024/01/15 10:12:41;;;;;;;8.75;1.38;;;;;;;;;;4970691;28;20054;-70
2024/01/15 10:15:11;;;;;;;10.80;2.22;;;;;;;;;;4969842;28;20055;-70
2024/01/15 10:17:39;;;;;;;9.23;1.30;;;;;;;;;;4972466;28;20054;-69
2024/01/15 10:20:09;;;;;;;15.73;4.80;;;;;;;;;;4966778;28;20138;-70
2024/01/15 10:22:38;;;;;;;6.93;1.13;;;;;;;;;;4965318;28;20050;-70
2024/01/15 10:25:06;;;;;;;7.47;1.83;;;;;;;;;;4969814;28;20050;-70
2024/01/15 10:27:34;;;;;;;2.92;0.60;;;;;;;;;;4971164;28;20059;-70
2024/01/15 10:30:02;;;;;;;10.05;2.15;;;;;;;;;;4969196;28;20065;-70
2024/01/15 10:32:30;;;;;;;11.30;1.70;;;;;;;;;;4971447;28;20038;-70
2024/01/15 10:34:57;;;;;;;8.45;0.73;;;;;;;;;;4967469;28;20106;-70
2024/01/15 10:37:26;;;;;;;12.88;1.30;;;;;;;;;;4971736;28;20054;-70
2024/01/15 10:39:54;;;;;;;8.52;0.95;;;;;;;;;;4969646;28;20057;-70
2024/01/15 10:42:21;;;;;;;9.63;0.80;;;;;;;;;;4969814;28;20057;-70
2024/01/15 10:44:50;;;;;;;12.02;1.10;;;;;;;;;;4970259;28;20087;-70
2024/01/15 10:47:17;;;;;;;12.82;1.15;;;;;;;;;;4971673;28;20494;-70
2024/01/15 10:49:46;;;;;;;19.35;1.38;;;;;;;;;;4970155;28;20062;-70
2024/01/15 10:52:14;;;;;;;14.48;1.42;;;;;;;;;;4972364;28;20411;-70
2024/01/15 10:54:43;;;;;;;13.27;1.10;;;;;;;;;;4969799;28;20541;-70
2024/01/15 10:57:10;;;;;;;6.55;0.98;;;;;;;;;;4970702;28;20062;-70
2024/01/15 10:59:38;;;;;;;8.60;0.98;;;;;;;;;;4970342;28;20062;-70
2024/01/15 11:02:06;;;;;;;9.00;1.30;;;;;;;;;;4971205;28;20054;-70
2024/01/15 11:04:34;;;;;;;12.13;1.10;;;;;;;;;;4971352;28;20061;-70
2024/01/15 11:07:02;;;;;;;5.78;0.68;;;;;;;;;;4971253;28;20057;-70
2024/01/15 11:09:30;;;;;;;9.70;1.08;;;;;;;;;;4968945;28;20047;-70
2024/01/15 11:12:08;;;;;;;12.23;2.88;;;;;;;;;;4971032;28;20047;-70
2024/01/15 11:14:35;;;;;;;15.98;2.75;;;;;;;;;;4969660;28;20544;-70
2024/01/15 11:17:03;;;;;;;14.43;2.67;;;;;;;;;;4965172;28;20055;-70
2024/01/15 11:19:39;;;;;;;11.50;1.65;;;;;;;;;;4971132;28;20047;-70
2024/01/15 11:22:08;;;;;;;13.85;1.63;;;;;;;;;;4970363;28;20059;-71
2024/01/15 11:24:37;;;;;;;22.70;4.03;;;;;;;;;;4968818;28;20057;-71
2024/01/15 11:27:04;;;;;;;24.67;5.07;;;;;;;;;;4965822;28;20058;-71
2024/01/15 11:29:34;;;;;;;21.52;6.32;;;;;;;;;;4969414;28;20064;-70
2024/01/15 11:32:04;;;;;;;8.07;1.25;;;;;;;;;;4969659;28;20130;-70
2024/01/15 11:34:50;;;;;;;20.92;3.78;;;;;;;;;;4969463;28;20093;-71
2024/01/15 11:37:19;;;;;;;6.63;2.28;;;;;;;;;;4970654;28;20073;-70
2024/01/15 11:39:47;;;;;;;6.75;1.17;;;;;;;;;;4969927;28;20460;-70
2024/01/15 11:42:15;;;;;;;10.73;1.23;;;;;;;;;;4968194;28;20101;-70
2024/01/15 11:44:44;;;;;;;12.40;1.73;;;;;;;;;;4970024;28;20047;-70
2024/01/15 11:47:13;;;;;;;15.60;1.55;;;;;;;;;;4969214;28;20058;-70
2024/01/15 11:49:56;;;;;;;11.30;1.55;;;;;;;;;;4969894;28;20109;-70
2024/01/15 11:52:24;;;;;;;14.95;1.05;;;;;;;;;;4969582;28;20049;-70
2024/01/15 11:54:57;;;;;;;12.02;1.02;;;;;;;;;;4967748;28;20054;-70
2024/01/15 11:57:31;;;;;;;5.23;0.87;;;;;;;;;;4968485;28;20101;-70
2024/01/15 11:59:58;;;;;;;8.70;1.00;;;;;;;;;;4968930;28;20051;-70
2024/01/15 12:02:26;;;;;;;14.75;1.20;;;;;;;;;;4968755;28;20061;-70
2024/01/15 12:04:53;;;;;;;5.28;1.42;;;;;;;;;;4968791;28;20587;-70
2024/01/15 12:07:20;;;;;;;9.13;1.35;;;;;;;;;;4969356;28;20545;-70
2024/01/15 12:09:49;;;;;;;8.90;1.27;;;;;;;;;;4969188;28;20061;-70
2024/01/15 12:12:23;;;;;;;7.90;0.85;;;;;;;;;;4967801;28;20055;-71
2024/01/15 12:14:50;;;;;;;10.90;0.77;;;;;;;;;;4968330;28;20057;-70
2024/01/15 12:17:17;;;;;;;10.60;1.05;;;;;;;;;;4969755;28;20059;-70
2024/01/15 12:19:45;;;;;;;9.77;0.68;;;;;;;;;;4967437;28;20046;-70
2024/01/15 12:22:12;;;;;;;9.45;0.90;;;;;;;;;;4970108;28;20748;-70
2024/01/15 12:24:39;;;;;;;8.18;0.70;;;;;;;;;;4969492;28;20051;-70
2024/01/15 12:27:08;;;;;;;11.95;1.15;;;;;;;;;;4962679;28;20113;-70
2024/01/15 12:29:35;;;;;;;8.13;1.02;;;;;;;;;;4966853;28;20061;-70
2024/01/15 12:32:03;;;;;;;12.38;1.73;;;;;;;;;;4969642;28;20867;-70
2024/01/15 12:34:31;;;;;;;11.10;1.52;;;;;;;;;;4967520;28;20046;-70
2024/01/15 12:36:59;;;;;;;18.63;1.70;;;;;;;;;;4968209;28;20133;-70
2024/01/15 12:39:26;;;;;;;20.10;2.40;;;;;;;;;;4967451;28;20055;-70
2024/01/15 12:41:53;;;;;;;16.42;2.03;;;;;;;;;;4969254;28;20055;-70
2024/01/15 12:44:22;;;;;;;19.85;2.30;;;;;;;;;;4968215;28;20065;-70
2024/01/15 12:46:49;;;;;;;20.98;1.88;;;;;;;;;;4963012;28;20085;-70
2024/01/15 12:49:17;;;;;;;16.13;2.70;;;;;;;;;;4968331;28;20058;-70
2024/01/15 12:51:44;;;;;;;14.75;1.88;;;;;;;;;;4966871;28;20093;-71
2024/01/15 12:54:12;;;;;;;9.68;1.30;;;;;;;;;;4961746;28;20091;-70
2024/01/15 12:56:39;;;;;;;12.82;1.83;;;;;;;;;;4965214;28;20146;-70
2024/01/15 12:59:06;;;;;;;18.23;3.92;;;;;;;;;;4967311;28;20047;-70
2024/01/15 13:01:35;;;;;;;12.35;1.27;;;;;;;;;;4965585;28;20529;-70
2024/01/15 13:04:03;;;;;;;12.77;1.73;;;;;;;;;;4968811;28;20772;-70
2024/01/15 13:06:30;;;;;;;13.77;1.88;;;;;;;;;;4963839;28;20043;-70
2024/01/15 13:08:57;;;;;;;12.18;2.80;;;;;;;;;;4963780;28;20402;-70
2024/01/15 13:11:25;;;;;;;17.23;1.85;;;;;;;;;;4967378;28;20043;-70
2024/01/15 13:13:52;;;;;;;11.40;2.42;;;;;;;;;;4965605;28;20146;-70
2024/01/15 13:16:20;;;;;;;22.40;3.15;;;;;;;;;;4967450;28;20055;-70
2024/01/15 13:18:50;;;;;;;15.88;1.40;;;;;;;;;;4964788;28;20042;-70
2024/01/15 13:21:17;;;;;;;18.70;2.08;;;;;;;;;;4968155;28;20094;-70
2024/01/15 13:23:44;;;;;;;11.60;1.42;;;;;;;;;;4971276;28;20113;-70
2024/01/15 13:26:12;;;;;;;15.65;2.10;;;;;;;;;;4974199;28;20058;-71
2024/01/15 13:28:39;;;;;;;13.85;1.42;;;;;;;;;;4975173;28;20069;-70
2024/01/15 13:31:06;;;;;;;7.30;1.15;;;;;;;;;;4968181;28;20153;-70
2024/01/15 13:33:34;;;;;;;12.00;1.23;;;;;;;;;;4974107;28;20129;-70
2024/01/15 13:36:03;;;;;;;7.88;0.90;;;;;;;;;;4974172;28;20516;-70
2024/01/15 13:38:35;;;;;;;8.10;0.60;;;;;;;;;;4975036;28;20066;-70
2024/01/15 13:41:03;;;;;;;3.95;0.60;;;;;;;;;;4969094;28;20505;-70
2024/01/15 13:43:30;;;;;;;6.22;0.75;;;;;;;;;;4965156;28;20047;-70
2024/01/15 13:45:57;;;;;;;6.55;0.90;;;;;;;;;;4973408;28;20050;-70
2024/01/15 13:48:25;;;;;;;10.13;1.13;;;;;;;;;;4974128;28;20050;-70
2024/01/15 13:50:53;;;;;;;13.07;1.17;;;;;;;;;;4974483;28;20121;-70
2024/01/15 13:53:22;;;;;;;13.88;1.52;;;;;;;;;;4973181;28;20065;-70
2024/01/15 13:55:49;;;;;;;10.02;1.52;;;;;;;;;;4975273;28;20046;-70
2024/01/15 13:58:18;;;;;;;10.32;0.90;;;;;;;;;;4974476;28;20073;-70
2024/01/15 14:00:45;;;;;;;12.45;1.25;;;;;;;;;;4968579;28;20046;-71
2024/01/15 14:03:12;;;;;;;8.88;1.33;;;;;;;;;;4973800;28;20451;-70
2024/01/15 14:05:40;;;;;;;15.75;1.58;;;;;;;;;;4970271;28;20457;-70
2024/01/15 14:08:07;;;;;;;12.60;1.10;;;;;;;;;;4966456;28;20478;-70
2024/01/15 14:10:37;;;;;;;10.82;2.00;;;;;;;;;;4968038;28;20050;-70
2024/01/15 14:13:04;;;;;;;11.25;1.98;;;;;;;;;;4967687;28;20059;-70
2024/01/15 14:15:32;;;;;;;8.57;1.27;;;;;;;;;;4973495;28;20043;-70
2024/01/15 14:18:00;;;;;;;6.05;0.88;;;;;;;;;;4973738;28;20054;-70
2024/01/15 14:20:27;;;;;;;2.45;0.35;;;;;;;;;;4974813;28;20541;-70
2024/01/15 14:22:55;;;;;;;1.77;0.30;;;;;;;;;;4971225;28;20066;-70
2024/01/15 14:25:22;;;;;;;2.75;0.45;;;;;;;;;;4987415;28;20458;-70
2024/01/15 14:27:51;;;;;;;2.70;0.20;;;;;;;;;;4962885;28;20047;-70
2024/01/15 14:30:18;;;;;;;8.52;0.40;;;;;;;;;;4966162;28;20191;-70
2024/01/15 14:32:46;;;;;;;7.13;0.52;;;;;;;;;;4968731;28;20046;-69
2024/01/15 14:35:13;;;;;;;4.05;0.60;;;;;;;;;;4971170;28;20126;-69
2024/01/15 14:37:40;;;;;;;5.65;1.10;;;;;;;;;;4966071;28;20050;-67